Time;durP1;ratioP1;P1;durP2;ratioP2;P2;SDS_P1;SDS_P2;PMS_P1;PMS_P2;Temp;Humidity;BMP_temperature;BMP_pressure;BME280_temperature;BME280_humidity;BME280_pressure;Samples;Min_cycle;Max_cycle;Signal;HPM_P1;HPM_P2
2022/05/03 00:00:04;;;;;;;0.80;0.60;;;10.90;99.90;;;;;;5108438;28;20625;-86
2022/05/03 00:02:41;;;;;;;0.50;0.47;;;11.00;99.90;;;;;;5108656;28;20645;-85
2022/05/03 00:05:12;;;;;;;3.93;1.63;;;11.00;99.90;;;;;;5102855;28;20716;-85
2022/05/03 00:07:45;;;;;;;2.90;1.80;;;10.90;99.90;;;;;;5100535;28;20721;-86
2022/05/03 00:10:17;;;;;;;2.60;1.60;;;10.90;99.90;;;;;;5107496;28;20690;-85
2022/05/03 00:12:48;;;;;;;0.93;0.93;;;10.90;99.90;;;;;;5106428;28;20609;-85
2022/05/03 00:15:18;;;;;;;0.40;0.30;;;10.80;99.90;;;;;;5103897;28;20626;-85
2022/05/03 00:17:48;;;;;;;0.90;0.90;;;10.80;99.90;;;;;;5107609;28;20628;-85
2022/05/03 00:20:17;;;;;;;1.07;1.07;;;10.80;99.90;;;;;;5107081;28;20717;-85
2022/05/03 00:22:47;;;;;;;0.93;0.93;;;10.80;99.90;;;;;;5107953;28;20689;-86
2022/05/03 00:25:16;;;;;;;2.30;1.17;;;10.80;99.90;;;;;;5107220;28;20620;-85
2022/05/03 00:27:45;;;;;;;1.03;0.93;;;10.70;99.90;;;;;;5107591;28;20717;-85
2022/05/03 00:30:13;;;;;;;0.67;0.67;;;10.60;99.90;;;;;;5107896;28;20742;-85
2022/05/03 00:32:41;;;;;;;1.10;1.00;;;10.60;99.90;;;;;;5107821;28;20659;-86
2022/05/03 00:35:09;;;;;;;14.40;2.03;;;10.60;99.90;;;;;;5107227;28;20988;-86
2022/05/03 00:37:39;;;;;;;1.50;1.07;;;10.50;99.90;;;;;;5107753;28;20651;-85
2022/05/03 00:40:10;;;;;;;1.33;1.33;;;10.50;99.90;;;;;;5106257;28;20618;-85
2022/05/03 00:42:47;;;;;;;1.50;0.80;;;10.40;99.90;;;;;;5107189;28;20719;-85
2022/05/03 00:45:23;;;;;;;0.93;0.93;;;10.40;99.90;;;;;;5090649;28;20619;-85
2022/05/03 00:47:52;;;;;;;1.10;0.70;;;10.40;99.90;;;;;;5111727;28;20977;-87
2022/05/03 00:50:33;;;;;;;1.10;0.93;;;10.40;99.90;;;;;;5111257;28;21058;-85
2022/05/03 00:53:09;;;;;;;0.67;0.67;;;10.40;99.90;;;;;;5111662;28;20979;-86
2022/05/03 00:56:13;;;;;;;4.70;1.80;;;10.40;99.90;;;;;;5111013;28;21536;-85
2022/05/03 00:59:11;;;;;;;0.40;0.40;;;10.30;99.90;;;;;;5095468;28;21034;-85
2022/05/03 01:01:43;;;;;;;1.23;0.53;;;10.30;99.90;;;;;;5091040;28;20617;-85
2022/05/03 01:04:21;;;;;;;0.80;0.80;;;10.20;99.90;;;;;;5094507;28;20793;-85
2022/05/03 01:06:58;;;;;;;1.30;1.03;;;10.20;99.90;;;;;;5108584;28;20640;-86
2022/05/03 01:09:34;;;;;;;0.30;0.30;;;10.20;99.90;;;;;;5109697;28;20651;-84
2022/05/03 01:12:17;;;;;;;0.63;0.63;;;10.20;99.90;;;;;;5111443;28;21180;-85
2022/05/03 01:15:06;;;;;;;1.70;1.60;;;10.20;99.90;;;;;;5099434;28;21275;-86
2022/05/03 01:17:44;;;;;;;1.30;0.80;;;10.20;99.90;;;;;;5111888;28;20615;-84
2022/05/03 01:20:15;;;;;;;0.80;0.80;;;10.10;99.90;;;;;;5112830;28;20721;-84
2022/05/03 01:23:18;;;;;;;0.70;0.70;;;9.90;99.90;;;;;;5112525;28;20647;-86
2022/05/03 01:26:12;;;;;;;0.50;0.50;;;10.00;99.90;;;;;;5110481;28;20617;-84
2022/05/03 01:29:02;;;;;;;1.37;1.27;;;9.90;99.90;;;;;;5111018;28;20647;-84
2022/05/03 01:31:30;;;;;;;1.47;1.30;;;9.80;99.90;;;;;;5091236;28;20651;-85
2022/05/03 01:34:02;;;;;;;0.47;0.47;;;9.80;99.90;;;;;;5108339;28;21246;-84
2022/05/03 01:36:47;;;;;;;3.20;0.80;;;9.80;99.90;;;;;;5110762;28;20629;-85
2022/05/03 01:39:24;;;;;;;1.23;1.13;;;9.80;99.90;;;;;;5104977;28;20735;-85
2022/05/03 01:41:58;;;;;;;2.00;1.80;;;9.70;99.90;;;;;;5108051;28;20661;-85
2022/05/03 01:44:37;;;;;;;0.60;0.50;;;9.80;99.90;;;;;;5110979;28;20676;-85
2022/05/03 01:47:18;;;;;;;0.30;0.30;;;9.70;99.90;;;;;;5110044;28;20625;-85
2022/05/03 01:53:09;;;;;;;1.60;1.17;;;9.60;99.90;;;;;;5111080;28;21079;-84
2022/05/03 01:56:25;;;;;;;1.23;1.13;;;9.60;99.90;;;;;;5109789;28;20652;-84
2022/05/03 01:59:05;;;;;;;2.27;0.63;;;9.50;99.90;;;;;;5111210;28;20615;-85
2022/05/03 02:01:53;;;;;;;1.27;0.57;;;9.40;99.90;;;;;;5110718;28;21014;-85
2022/05/03 02:04:41;;;;;;;0.93;0.90;;;9.40;99.90;;;;;;5109949;28;20651;-84
2022/05/03 02:07:13;;;;;;;0.40;0.30;;;9.50;99.90;;;;;;5097582;28;20712;-84
2022/05/03 02:10:02;;;;;;;1.90;1.70;;;9.50;99.90;;;;;;5108446;28;20759;-84
2022/05/03 02:12:30;;;;;;;0.77;0.67;;;9.60;99.90;;;;;;5110794;28;20706;-85
2022/05/03 02:15:03;;;;;;;1.03;1.03;;;9.50;99.90;;;;;;5111146;28;21197;-85
2022/05/03 02:17:46;;;;;;;1.00;1.00;;;9.50;99.90;;;;;;5101070;28;20615;-85
2022/05/03 02:20:49;;;;;;;1.50;1.40;;;9.40;99.90;;;;;;5110990;28;21013;-84
2022/05/03 02:23:41;;;;;;;0.80;0.80;;;9.40;99.90;;;;;;5081394;28;20734;-84
2022/05/03 02:26:37;;;;;;;3.60;1.50;;;9.40;99.90;;;;;;5109096;28;20671;-84
2022/05/03 02:29:10;;;;;;;0.40;0.33;;;9.30;99.90;;;;;;5103433;28;21319;-85
2022/05/03 02:31:45;;;;;;;1.07;0.90;;;9.30;99.90;;;;;;5111783;28;20706;-85
2022/05/03 02:34:24;;;;;;;2.67;1.17;;;9.30;99.90;;;;;;5111085;28;20713;-84
2022/05/03 02:36:57;;;;;;;0.40;0.40;;;9.40;99.90;;;;;;5110938;28;20675;-84
2022/05/03 02:39:29;;;;;;;4.53;2.03;;;9.30;99.90;;;;;;5111424;28;20909;-84
2022/05/03 02:41:59;;;;;;;1.00;1.00;;;9.20;99.90;;;;;;5108271;28;20198;-84
2022/05/03 02:44:30;;;;;;;1.40;1.30;;;9.20;99.90;;;;;;5110949;28;20208;-84
2022/05/03 02:47:05;;;;;;;0.63;0.63;;;9.10;99.90;;;;;;5108994;28;20615;-84
2022/05/03 02:49:59;;;;;;;0.43;0.43;;;9.00;99.90;;;;;;5110158;28;20754;-84
2022/05/03 02:52:32;;;;;;;0.55;0.55;;;9.00;99.90;;;;;;5110625;28;21188;-84
2022/05/03 02:55:06;;;;;;;0.87;0.87;;;9.00;99.90;;;;;;5110606;28;20680;-85
2022/05/03 02:57:45;;;;;;;0.95;0.57;;;8.90;99.90;;;;;;5110884;28;21010;-85
2022/05/03 03:03:11;;;;;;;1.65;0.55;;;9.00;99.90;;;;;;5110620;28;20971;-84
2022/05/03 03:05:44;;;;;;;0.85;0.82;;;8.90;99.90;;;;;;5105990;28;20206;-83
2022/05/03 03:08:12;;;;;;;0.40;0.40;;;8.80;99.90;;;;;;5110349;28;20285;-84
2022/05/03 03:10:49;;;;;;;1.48;1.38;;;8.80;99.90;;;;;;5110462;28;20238;-83
2022/05/03 03:13:30;;;;;;;1.02;1.02;;;8.80;99.90;;;;;;5110383;28;20284;-84
2022/05/03 03:15:57;;;;;;;0.93;0.60;;;8.90;99.90;;;;;;5110118;28;20600;-85
2022/05/03 03:18:27;;;;;;;0.40;0.30;;;8.90;99.90;;;;;;5111088;28;20209;-82
2022/05/03 03:20:58;;;;;;;0.70;0.57;;;8.80;99.90;;;;;;5109075;28;20194;-84
2022/05/03 03:23:28;;;;;;;0.52;0.52;;;8.80;99.90;;;;;;5111029;28;20236;-84
2022/05/03 03:25:55;;;;;;;1.27;1.17;;;8.70;99.90;;;;;;5110405;28;20202;-83
2022/05/03 03:28:24;;;;;;;0.40;0.32;;;8.70;99.90;;;;;;5112555;28;20205;-84
2022/05/03 03:30:52;;;;;;;0.70;0.70;;;8.70;99.90;;;;;;5111760;28;20213;-84
2022/05/03 03:33:20;;;;;;;0.60;0.60;;;8.70;99.90;;;;;;5108158;28;20206;-84
2022/05/03 03:35:48;;;;;;;0.40;0.40;;;8.70;99.90;;;;;;5110171;28;20245;-83
2022/05/03 03:38:19;;;;;;;0.50;0.50;;;8.60;99.90;;;;;;5111213;28;20198;-84
2022/05/03 03:40:46;;;;;;;0.82;0.68;;;8.60;99.90;;;;;;5102586;28;20255;-84
2022/05/03 03:43:15;;;;;;;0.43;0.43;;;8.60;99.90;;;;;;5104585;28;20281;-84
2022/05/03 03:45:42;;;;;;;0.93;0.60;;;8.60;99.90;;;;;;5092807;28;20262;-83
2022/05/03 03:48:10;;;;;;;0.90;0.90;;;8.70;99.90;;;;;;5101137;28;20255;-83
2022/05/03 03:50:39;;;;;;;0.68;0.68;;;8.80;99.90;;;;;;5111771;28;20270;-84
2022/05/03 03:53:07;;;;;;;0.40;0.40;;;8.80;99.90;;;;;;5112073;28;20327;-83
2022/05/03 03:55:36;;;;;;;1.33;1.23;;;8.70;99.90;;;;;;5114859;28;20210;-83
2022/05/03 03:58:04;;;;;;;0.63;0.63;;;8.80;99.90;;;;;;5111389;28;20205;-84
2022/05/03 04:00:31;;;;;;;1.08;0.60;;;8.80;99.90;;;;;;5111163;28;20201;-83
2022/05/03 04:03:00;;;;;;;1.98;1.10;;;8.80;99.90;;;;;;5110356;28;20258;-85
2022/05/03 04:05:28;;;;;;;0.95;0.95;;;8.80;99.90;;;;;;5107484;28;20775;-84
2022/05/03 04:07:55;;;;;;;1.67;1.50;;;8.70;99.90;;;;;;5110646;28;20198;-83
2022/05/03 04:10:22;;;;;;;1.95;0.95;;;8.70;99.90;;;;;;5110040;28;20305;-84
2022/05/03 04:12:51;;;;;;;0.85;0.85;;;8.70;99.90;;;;;;5110495;28;20217;-83
2022/05/03 04:15:21;;;;;;;0.38;0.35;;;8.60;99.90;;;;;;5110148;28;20210;-83
2022/05/03 04:17:47;;;;;;;0.60;0.60;;;8.60;99.90;;;;;;5110936;28;20736;-83
2022/05/03 04:20:16;;;;;;;0.83;0.70;;;8.50;99.90;;;;;;5110754;28;20202;-83
2022/05/03 04:22:43;;;;;;;2.35;1.25;;;8.60;99.90;;;;;;5115539;28;20729;-83
2022/05/03 04:25:10;;;;;;;2.03;1.92;;;8.70;99.90;;;;;;5115241;28;20216;-84
2022/05/03 04:27:37;;;;;;;0.55;0.55;;;8.70;99.90;;;;;;5114651;28;20197;-83
2022/05/03 04:30:07;;;;;;;0.77;0.77;;;8.70;99.90;;;;;;5115254;28;20230;-83
2022/05/03 04:32:35;;;;;;;2.05;1.80;;;8.50;99.90;;;;;;5114044;28;20289;-83
2022/05/03 04:35:02;;;;;;;0.85;0.85;;;8.60;99.90;;;;;;5113980;28;20198;-82
2022/05/03 04:37:29;;;;;;;2.80;1.58;;;8.60;99.90;;;;;;5113684;28;20201;-83
2022/05/03 04:39:56;;;;;;;0.73;0.73;;;8.70;99.90;;;;;;5114226;28;20214;-84
2022/05/03 04:42:23;;;;;;;3.45;2.22;;;8.70;99.90;;;;;;5113292;28;20738;-83
2022/05/03 04:44:50;;;;;;;1.35;1.25;;;8.80;99.90;;;;;;5113150;28;20202;-84
2022/05/03 04:47:18;;;;;;;2.35;2.25;;;8.80;99.90;;;;;;5112845;28;20300;-83
2022/05/03 04:49:46;;;;;;;2.08;1.88;;;8.80;99.90;;;;;;5100604;28;20218;-83
2022/05/03 04:52:13;;;;;;;0.88;0.88;;;8.80;99.90;;;;;;5114055;28;20202;-83
2022/05/03 04:54:40;;;;;;;1.35;1.23;;;8.90;99.90;;;;;;5113421;28;20204;-83
2022/05/03 04:57:23;;;;;;;0.98;0.98;;;8.90;99.90;;;;;;5113459;28;20297;-83
2022/05/03 04:59:51;;;;;;;1.55;1.45;;;9.00;99.90;;;;;;5113736;28;20202;-83
2022/05/03 05:02:19;;;;;;;1.08;1.08;;;9.10;99.90;;;;;;5113758;28;20202;-83
2022/05/03 05:04:46;;;;;;;3.25;1.25;;;9.20;99.90;;;;;;5112696;28;20198;-84
2022/05/03 05:07:13;;;;;;;2.43;1.50;;;9.30;99.90;;;;;;5104837;28;20687;-84
2022/05/03 05:10:23;;;;;;;0.67;0.67;;;9.30;99.90;;;;;;5113526;28;20655;-84
2022/05/03 05:12:28;;;;;;;1.00;1.00;;;9.30;99.90;;;;;;5113400;28;20742;-83
2022/05/03 05:14:55;;;;;;;1.30;1.17;;;9.40;99.90;;;;;;5113146;28;21207;-82
2022/05/03 05:17:23;;;;;;;1.40;1.30;;;9.40;99.90;;;;;;5112558;28;20615;-83
2022/05/03 05:19:50;;;;;;;1.50;1.40;;;9.60;99.90;;;;;;5112315;28;20645;-83
2022/05/03 05:22:17;;;;;;;1.23;1.13;;;9.70;99.90;;;;;;5113423;28;20627;-83
2022/05/03 05:24:44;;;;;;;2.40;2.30;;;9.80;99.90;;;;;;5114244;28;20662;-84
2022/05/03 05:27:11;;;;;;;1.33;1.33;;;9.90;99.90;;;;;;5113463;28;20658;-84
2022/05/03 05:29:38;;;;;;;4.63;1.50;;;10.00;99.90;;;;;;5113933;28;20634;-83
2022/05/03 05:32:05;;;;;;;2.37;1.40;;;10.10;99.90;;;;;;5113255;28;20615;-83
2022/05/03 05:34:34;;;;;;;2.13;1.17;;;10.20;99.90;;;;;;5114306;28;21124;-83
2022/05/03 05:37:01;;;;;;;2.60;1.43;;;10.40;99.90;;;;;;5112150;27;20662;-83
2022/05/03 05:39:28;;;;;;;2.10;1.23;;;10.50;99.90;;;;;;5113631;28;20669;-83
2022/05/03 05:41:55;;;;;;;1.57;1.10;;;10.60;99.90;;;;;;5113403;28;20652;-83
2022/05/03 05:44:22;;;;;;;2.23;2.03;;;10.80;99.90;;;;;;5098497;28;20676;-84
2022/05/03 05:46:49;;;;;;;0.80;0.67;;;10.80;99.90;;;;;;5102903;28;20632;-83
2022/05/03 05:49:16;;;;;;;2.50;1.57;;;11.10;99.90;;;;;;5113309;28;20651;-83
2022/05/03 05:51:47;;;;;;;1.77;1.67;;;11.20;99.90;;;;;;5113189;28;20661;-84
2022/05/03 05:54:16;;;;;;;0.73;0.73;;;11.40;99.90;;;;;;5103492;28;20636;-84
2022/05/03 05:56:46;;;;;;;0.77;0.77;;;11.50;99.90;;;;;;5106241;28;21203;-84
2022/05/03 05:59:13;;;;;;;0.47;0.47;;;11.70;99.90;;;;;;5094488;28;20613;-84
2022/05/03 06:01:42;;;;;;;1.07;1.07;;;11.90;99.90;;;;;;5111410;28;20622;-83
2022/05/03 06:04:09;;;;;;;1.67;1.60;;;12.00;99.90;;;;;;5111521;28;20665;-84
2022/05/03 06:06:36;;;;;;;1.50;1.43;;;12.20;99.90;;;;;;5111210;28;20662;-83
2022/05/03 06:09:05;;;;;;;1.60;1.23;;;12.40;99.90;;;;;;5107162;28;20707;-84
2022/05/03 06:11:32;;;;;;;2.10;1.20;;;12.60;99.90;;;;;;5127938;27;20642;-83
2022/05/03 06:13:59;;;;;;;1.50;0.80;;;12.70;99.90;;;;;;5111276;27;20726;-83
2022/05/03 06:16:26;;;;;;;1.90;1.30;;;12.90;99.90;;;;;;5110656;28;20634;-85
2022/05/03 06:18:53;;;;;;;1.93;1.03;;;13.00;99.80;;;;;;5111293;28;20651;-83
2022/05/03 06:21:20;;;;;;;2.60;1.23;;;13.20;99.10;;;;;;5111515;28;20727;-84
2022/05/03 06:23:49;;;;;;;1.20;0.90;;;13.30;99.30;;;;;;5110404;28;20643;-84
2022/05/03 06:26:18;;;;;;;2.60;1.50;;;13.50;99.10;;;;;;5110816;28;20980;-84
2022/05/03 06:28:46;;;;;;;2.37;0.90;;;13.40;98.80;;;;;;5111545;28;20659;-83
2022/05/03 06:31:13;;;;;;;1.33;1.23;;;13.60;98.40;;;;;;5112458;28;20722;-84
2022/05/03 06:33:40;;;;;;;1.00;1.00;;;13.70;98.40;;;;;;5112881;28;20753;-85
2022/05/03 06:36:07;;;;;;;2.93;1.90;;;13.90;97.10;;;;;;5109565;28;20691;-84
2022/05/03 06:38:33;;;;;;;2.37;2.10;;;13.90;96.80;;;;;;5110066;28;20624;-84
2022/05/03 06:41:01;;;;;;;1.50;1.40;;;14.10;96.50;;;;;;5109993;28;20715;-84
2022/05/03 06:43:29;;;;;;;0.50;0.50;;;14.00;95.70;;;;;;5109163;28;20662;-84
2022/05/03 06:45:56;;;;;;;2.83;2.20;;;14.10;96.50;;;;;;5109361;28;20738;-83
2022/05/03 06:48:23;;;;;;;1.20;1.17;;;14.20;96.30;;;;;;5110323;27;20969;-84
2022/05/03 06:50:50;;;;;;;1.80;1.13;;;14.30;96.50;;;;;;5108789;28;20737;-83
2022/05/03 06:53:16;;;;;;;1.43;1.33;;;14.20;96.30;;;;;;5110470;28;21020;-84
2022/05/03 06:55:51;;;;;;;1.77;0.87;;;14.30;96.50;;;;;;5109337;28;20660;-84
2022/05/03 06:58:18;;;;;;;1.10;1.10;;;14.50;96.30;;;;;;5110110;27;20633;-84
2022/05/03 07:00:46;;;;;;;0.83;0.80;;;14.70;96.40;;;;;;5109803;28;20671;-84
2022/05/03 07:03:14;;;;;;;1.27;1.17;;;15.00;95.90;;;;;;5108443;28;20677;-86
2022/05/03 07:05:40;;;;;;;1.37;1.27;;;15.20;95.70;;;;;;5109061;28;20627;-85
2022/05/03 07:08:09;;;;;;;1.07;1.00;;;15.40;94.80;;;;;;5108835;28;21007;-84
2022/05/03 07:10:36;;;;;;;1.53;1.23;;;15.50;94.50;;;;;;5109711;28;20659;-85
2022/05/03 07:13:03;;;;;;;1.23;0.77;;;15.60;94.10;;;;;;5110168;28;21050;-83
2022/05/03 07:15:30;;;;;;;1.90;1.80;;;15.70;93.20;;;;;;5109069;28;20718;-84
2022/05/03 07:23:27;;;;;;;1.40;0.70;;;16.00;93.20;;;;;;5103162;27;20608;-85
2022/05/03 07:25:54;;;;;;;1.07;1.03;;;15.90;91.30;;;;;;5108409;28;20623;-84
2022/05/03 07:28:21;;;;;;;1.17;0.70;;;15.90;92.20;;;;;;5109284;28;20623;-84
2022/05/03 07:30:48;;;;;;;1.20;1.13;;;16.10;92.20;;;;;;5108872;28;20647;-84
2022/05/03 07:33:17;;;;;;;1.17;1.07;;;16.30;92.90;;;;;;5110441;28;20615;-84
2022/05/03 07:35:44;;;;;;;1.33;1.20;;;16.60;92.30;;;;;;5116246;27;20676;-83
2022/05/03 07:38:11;;;;;;;1.73;1.63;;;16.70;91.60;;;;;;5109718;28;20699;-85
2022/05/03 07:40:38;;;;;;;1.80;1.70;;;16.70;92.00;;;;;;5109987;27;20672;-84
2022/05/03 07:43:05;;;;;;;2.20;1.33;;;16.70;92.10;;;;;;5108611;28;21059;-84
2022/05/03 07:45:32;;;;;;;1.20;1.10;;;16.60;91.80;;;;;;5108138;28;20623;-84
2022/05/03 07:47:59;;;;;;;1.30;1.20;;;16.80;91.00;;;;;;5109275;28;20620;-85
2022/05/03 07:50:28;;;;;;;1.70;1.10;;;16.90;91.00;;;;;;5108892;28;21173;-84
2022/05/03 07:52:54;;;;;;;1.00;1.00;;;16.80;90.60;;;;;;5109222;28;20615;-84
2022/05/03 07:55:21;;;;;;;1.03;0.83;;;16.80;90.80;;;;;;5108659;28;20623;-84
2022/05/03 07:57:48;;;;;;;1.33;1.13;;;16.80;90.10;;;;;;5108359;28;20620;-84
2022/05/03 08:00:16;;;;;;;0.40;0.40;;;16.90;90.20;;;;;;5108834;28;20682;-85
2022/05/03 08:02:43;;;;;;;1.87;1.17;;;16.90;90.20;;;;;;5108527;28;20619;-84
2022/05/03 08:05:10;;;;;;;1.10;0.80;;;16.90;90.20;;;;;;5116145;27;20695;-85
2022/05/03 08:07:39;;;;;;;1.70;1.60;;;17.00;90.40;;;;;;5125099;27;20634;-84
2022/05/03 08:10:07;;;;;;;1.27;1.17;;;17.00;90.00;;;;;;5109013;28;20680;-84
2022/05/03 08:12:34;;;;;;;1.17;0.60;;;17.00;90.00;;;;;;5107593;28;21238;-85
2022/05/03 08:15:01;;;;;;;4.77;1.47;;;17.00;90.20;;;;;;5109135;28;20632;-83
2022/05/03 08:17:28;;;;;;;1.97;1.83;;;17.00;90.60;;;;;;5108499;28;20623;-84
2022/05/03 08:19:56;;;;;;;1.77;0.90;;;17.10;90.10;;;;;;5109054;28;20629;-84
2022/05/03 08:22:22;;;;;;;2.03;1.87;;;17.20;90.20;;;;;;5109038;28;20602;-85
2022/05/03 08:24:51;;;;;;;1.20;1.10;;;17.20;90.40;;;;;;5109232;28;21012;-85
2022/05/03 08:27:18;;;;;;;2.07;1.80;;;17.30;90.00;;;;;;5108051;28;20667;-85
2022/05/03 08:29:45;;;;;;;1.10;1.00;;;17.30;90.40;;;;;;5107716;28;20620;-84
2022/05/03 08:32:13;;;;;;;1.60;1.47;;;17.30;89.70;;;;;;5109190;28;20651;-84
2022/05/03 08:34:39;;;;;;;2.30;1.70;;;17.30;89.30;;;;;;5107971;28;20712;-85
2022/05/03 08:42:36;;;;;;;1.90;1.47;;;17.30;88.00;;;;;;5109003;28;20603;-84
2022/05/03 08:45:04;;;;;;;1.07;1.00;;;17.30;87.10;;;;;;5108678;28;20646;-85
2022/05/03 08:47:32;;;;;;;1.90;1.20;;;17.20;86.70;;;;;;5108885;28;20625;-85
2022/05/03 08:50:06;;;;;;;1.03;1.03;;;17.20;88.30;;;;;;5108437;28;20626;-84
2022/05/03 08:52:38;;;;;;;1.70;1.27;;;17.20;90.00;;;;;;5109110;28;20648;-84
2022/05/03 08:55:07;;;;;;;2.00;1.20;;;17.40;89.10;;;;;;5108100;28;20722;-85
2022/05/03 08:57:34;;;;;;;0.40;0.40;;;17.50;87.00;;;;;;5109943;28;20636;-84
2022/05/03 09:00:04;;;;;;;1.43;1.13;;;17.60;87.10;;;;;;5108336;28;20615;-84
2022/05/03 09:02:31;;;;;;;2.00;1.00;;;17.80;85.00;;;;;;5107993;28;20635;-84
2022/05/03 09:04:58;;;;;;;1.47;1.37;;;17.80;85.20;;;;;;5106941;28;20672;-85
2022/05/03 09:07:26;;;;;;;0.60;0.60;;;17.90;86.40;;;;;;5110400;28;20607;-84
2022/05/03 09:09:55;;;;;;;0.60;0.60;;;18.00;85.10;;;;;;5111773;28;20662;-85
2022/05/03 09:12:27;;;;;;;1.00;0.60;;;18.10;84.10;;;;;;5112372;28;21286;-85
2022/05/03 09:14:56;;;;;;;1.83;0.83;;;18.10;84.50;;;;;;5111841;28;20639;-84
2022/05/03 09:17:37;;;;;;;0.90;0.90;;;18.10;85.20;;;;;;5110836;28;20627;-85
2022/05/03 09:25:42;;;;;;;2.00;1.17;;;18.70;81.90;;;;;;5110946;28;20659;-85
2022/05/03 09:28:10;;;;;;;1.33;1.23;;;18.80;81.20;;;;;;5111265;28;20635;-85
2022/05/03 09:30:46;;;;;;;1.13;0.70;;;18.30;81.00;;;;;;5111948;28;20624;-85
2022/05/03 09:33:16;;;;;;;1.13;1.03;;;18.40;80.30;;;;;;5110817;28;20623;-83
2022/05/03 09:35:44;;;;;;;0.77;0.60;;;18.70;80.20;;;;;;5111448;28;20627;-83
2022/05/03 09:38:10;;;;;;;0.50;0.50;;;19.00;76.00;;;;;;5110673;28;20730;-84
2022/05/03 09:40:40;;;;;;;1.10;0.83;;;19.30;73.00;;;;;;5110398;28;20947;-84
2022/05/03 09:43:07;;;;;;;1.60;1.23;;;19.30;71.50;;;;;;5111905;28;20631;-84
2022/05/03 09:45:35;;;;;;;0.73;0.73;;;19.30;72.10;;;;;;5111180;28;20623;-85
2022/05/03 09:48:02;;;;;;;0.40;0.40;;;19.40;69.70;;;;;;5111605;28;20627;-84
2022/05/03 09:50:39;;;;;;;0.60;0.60;;;19.60;68.60;;;;;;5111365;28;20714;-84
2022/05/03 09:53:16;;;;;;;0.70;0.70;;;19.70;67.20;;;;;;5110784;27;20639;-84
2022/05/03 09:55:45;;;;;;;0.40;0.40;;;19.80;66.90;;;;;;5111357;28;20623;-84
2022/05/03 09:58:13;;;;;;;1.70;0.97;;;19.60;68.20;;;;;;5111547;28;20727;-85
2022/05/03 10:00:43;;;;;;;0.60;0.60;;;19.70;69.70;;;;;;5111618;28;20702;-84
2022/05/03 10:03:11;;;;;;;0.50;0.33;;;19.90;66.60;;;;;;5109769;27;20612;-85
2022/05/03 10:05:40;;;;;;;0.60;0.60;;;19.90;65.30;;;;;;5115678;27;21191;-85
2022/05/03 10:08:10;;;;;;;1.07;0.97;;;20.10;68.20;;;;;;5111031;28;20627;-84
2022/05/03 10:10:41;;;;;;;0.83;0.83;;;20.20;68.40;;;;;;5111553;28;20655;-85
2022/05/03 10:13:08;;;;;;;2.40;1.40;;;20.10;69.10;;;;;;5110779;28;20651;-84
2022/05/03 10:21:14;;;;;;;0.77;0.77;;;19.90;64.20;;;;;;5111719;28;20604;-84
2022/05/03 10:23:41;;;;;;;1.17;1.07;;;19.70;64.00;;;;;;5128207;27;20631;-84
2022/05/03 10:26:10;;;;;;;1.00;1.00;;;19.60;65.80;;;;;;5111332;27;20623;-84
2022/05/03 10:29:07;;;;;;;0.53;0.53;;;20.00;68.50;;;;;;5102772;28;20970;-84
2022/05/03 10:31:53;;;;;;;1.13;0.70;;;20.30;68.90;;;;;;5110449;28;20666;-84
2022/05/03 10:34:47;;;;;;;0.83;0.53;;;20.40;64.80;;;;;;5111117;28;20621;-84
2022/05/03 10:37:16;;;;;;;0.73;0.57;;;20.20;64.70;;;;;;5111299;28;20730;-84
2022/05/03 10:39:54;;;;;;;1.53;1.07;;;20.10;63.30;;;;;;5112104;28;20619;-84
2022/05/03 10:42:26;;;;;;;0.37;0.37;;;20.30;65.70;;;;;;5091196;28;20717;-85
2022/05/03 10:44:58;;;;;;;1.70;1.30;;;20.40;64.50;;;;;;5090181;28;20717;-84
2022/05/03 10:47:46;;;;;;;1.43;1.07;;;20.80;63.60;;;;;;5090057;28;20707;-84
2022/05/03 10:50:32;;;;;;;1.97;1.30;;;20.50;63.40;;;;;;5091232;28;21146;-84
2022/05/03 10:53:26;;;;;;;0.70;0.70;;;20.40;63.70;;;;;;5090995;28;20694;-84
2022/05/03 10:56:16;;;;;;;1.70;1.60;;;20.70;62.00;;;;;;5090263;28;20624;-84
2022/05/03 10:59:15;;;;;;;0.80;0.80;;;20.90;63.20;;;;;;5090371;28;20620;-84
2022/05/03 11:02:09;;;;;;;2.37;1.13;;;21.20;60.80;;;;;;5080692;28;20620;-84
2022/05/03 11:05:12;;;;;;;0.80;0.70;;;21.20;61.60;;;;;;5089481;28;20697;-85
2022/05/03 11:07:41;;;;;;;1.00;1.00;;;21.60;61.70;;;;;;5102697;28;20615;-85
2022/05/03 11:10:39;;;;;;;1.33;1.33;;;21.00;57.90;;;;;;5110397;28;20655;-85
2022/05/03 11:13:06;;;;;;;0.90;0.53;;;20.70;60.50;;;;;;5110650;28;20694;-85
2022/05/03 11:15:33;;;;;;;4.10;1.63;;;20.90;61.00;;;;;;5109203;28;20711;-84
2022/05/03 11:18:02;;;;;;;0.80;0.50;;;21.20;61.30;;;;;;5108864;28;20644;-85
2022/05/03 11:20:29;;;;;;;0.97;0.80;;;21.70;60.60;;;;;;5110369;28;20604;-86
2022/05/03 11:22:58;;;;;;;1.50;1.40;;;22.10;59.00;;;;;;5109253;28;21015;-85
2022/05/03 11:25:24;;;;;;;0.83;0.80;;;22.50;60.40;;;;;;5108729;28;20639;-85
2022/05/03 11:27:52;;;;;;;1.17;1.10;;;22.70;59.50;;;;;;5108982;28;20615;-85
2022/05/03 11:30:19;;;;;;;1.27;1.17;;;23.00;57.70;;;;;;5108732;28;20634;-85
2022/05/03 11:32:46;;;;;;;1.67;1.43;;;23.10;58.30;;;;;;5109025;28;20673;-85
2022/05/03 11:35:15;;;;;;;1.87;1.63;;;23.30;57.60;;;;;;5109133;28;21183;-85
2022/05/03 11:37:47;;;;;;;1.30;1.20;;;23.70;58.90;;;;;;5109212;28;20683;-85
2022/05/03 11:40:18;;;;;;;1.30;1.00;;;23.80;56.50;;;;;;5112665;27;20687;-85
2022/05/03 11:42:46;;;;;;;1.23;1.13;;;24.10;56.10;;;;;;5130484;27;20953;-85
2022/05/03 11:45:14;;;;;;;1.23;1.13;;;24.30;56.50;;;;;;5107635;28;20627;-85
2022/05/03 11:47:43;;;;;;;1.20;1.10;;;24.80;55.50;;;;;;5109121;28;20631;-85
2022/05/03 11:50:13;;;;;;;1.63;1.40;;;25.30;54.50;;;;;;5105739;28;20608;-85
2022/05/03 11:58:17;;;;;;;2.03;1.50;;;25.90;51.90;;;;;;5096595;28;20669;-86
2022/05/03 12:00:49;;;;;;;1.50;1.40;;;27.00;52.90;;;;;;5108658;28;20655;-86
2022/05/03 12:03:16;;;;;;;1.87;1.47;;;26.50;49.60;;;;;;5108854;28;20608;-86
2022/05/03 12:05:59;;;;;;;1.10;1.10;;;25.00;50.30;;;;;;5107724;28;21210;-86
2022/05/03 12:08:30;;;;;;;0.83;0.83;;;25.50;53.00;;;;;;5108011;28;21205;-86
2022/05/03 12:10:59;;;;;;;1.17;1.10;;;25.60;50.30;;;;;;5108499;28;20615;-86
2022/05/03 12:13:28;;;;;;;1.67;1.57;;;25.00;51.70;;;;;;5108799;28;20689;-86
2022/05/03 12:16:11;;;;;;;0.60;0.60;;;25.50;52.80;;;;;;5108525;28;20615;-86
2022/05/03 12:18:41;;;;;;;0.70;0.70;;;26.70;50.10;;;;;;5108353;28;20631;-86
2022/05/03 12:21:10;;;;;;;2.50;0.70;;;26.70;47.30;;;;;;5108722;28;21288;-86
2022/05/03 12:23:43;;;;;;;1.27;1.17;;;27.60;48.80;;;;;;5108757;28;20647;-86
2022/05/03 12:26:20;;;;;;;1.43;1.33;;;27.40;46.20;;;;;;5108016;28;20623;-87
2022/05/03 12:28:48;;;;;;;0.97;0.97;;;26.30;46.40;;;;;;5108516;28;20627;-85
2022/05/03 12:31:17;;;;;;;1.30;1.20;;;25.80;47.50;;;;;;5108802;28;20750;-85
2022/05/03 12:33:46;;;;;;;1.20;1.00;;;25.40;47.70;;;;;;5109143;28;20627;-86
2022/05/03 12:36:28;;;;;;;0.70;0.70;;;26.20;48.00;;;;;;5106584;28;20612;-86
2022/05/03 12:38:55;;;;;;;1.23;0.87;;;26.70;47.70;;;;;;5108644;28;20624;-87
2022/05/03 12:41:29;;;;;;;1.60;1.50;;;27.90;48.30;;;;;;5122422;27;21200;-85
2022/05/03 12:44:11;;;;;;;1.23;1.13;;;28.70;49.00;;;;;;5113531;27;20666;-86
2022/05/03 12:46:42;;;;;;;1.80;1.70;;;28.90;47.10;;;;;;5111880;28;20967;-86
2022/05/03 12:49:11;;;;;;;0.83;0.83;;;28.00;46.70;;;;;;5113162;28;20616;-87
2022/05/03 12:51:40;;;;;;;0.97;0.97;;;27.10;47.10;;;;;;5113495;28;20630;-88
2022/05/03 12:54:08;;;;;;;1.17;0.63;;;25.60;49.00;;;;;;5112304;28;20627;-86
2022/05/03 12:59:31;;;;;;;0.70;0.63;;;23.10;48.80;;;;;;5109901;28;20670;-88
2022/05/03 13:01:58;;;;;;;0.63;0.63;;;22.00;50.20;;;;;;5113317;28;20642;-87
2022/05/03 13:04:31;;;;;;;0.83;0.80;;;21.40;51.60;;;;;;5113816;28;20701;-86
2022/05/03 13:07:02;;;;;;;1.60;1.47;;;20.60;56.80;;;;;;5112086;28;20985;-83
2022/05/03 13:09:30;;;;;;;0.43;0.30;;;19.90;62.60;;;;;;5112469;28;20631;-84
2022/05/03 13:11:58;;;;;;;0.60;0.50;;;19.00;64.20;;;;;;5110613;28;20611;-84
2022/05/03 13:14:26;;;;;;;1.97;1.00;;;18.40;72.30;;;;;;5112067;28;20723;-86
2022/05/03 13:16:54;;;;;;;1.53;0.80;;;18.00;77.00;;;;;;5111057;28;21216;-85
2022/05/03 13:19:21;;;;;;;0.70;0.70;;;17.50;78.40;;;;;;5111904;28;20611;-85
2022/05/03 13:21:48;;;;;;;0.43;0.43;;;16.90;81.40;;;;;;5111654;28;20607;-88
2022/05/03 13:24:16;;;;;;;1.03;0.93;;;16.50;87.60;;;;;;5111999;28;21062;-90
2022/05/03 13:26:48;;;;;;;2.23;0.90;;;15.80;92.70;;;;;;5111743;28;20619;-89
2022/05/03 13:29:24;;;;;;;1.13;1.03;;;15.30;99.90;;;;;;5112522;27;20611;-89
2022/05/03 13:31:52;;;;;;;1.57;0.63;;;;;;;;;;5112768;28;20610;-89
2022/05/03 13:34:19;;;;;;;0.37;0.27;;;14.30;99.90;;;;;;5111855;28;20959;-89
2022/05/03 13:42:14;;;;;;;0.63;0.63;;;13.50;99.90;;;;;;5108634;27;20662;-87
2022/05/03 13:44:43;;;;;;;0.50;0.40;;;13.60;99.90;;;;;;5118389;27;21194;-87
2022/05/03 13:47:12;;;;;;;2.37;0.50;;;13.80;99.90;;;;;;5110713;28;20893;-87
2022/05/03 13:49:39;;;;;;;0.53;0.50;;;13.80;99.90;;;;;;5111006;28;20662;-87
2022/05/03 13:52:07;;;;;;;0.70;0.70;;;13.70;99.90;;;;;;5110574;28;20659;-87
2022/05/03 13:54:34;;;;;;;0.87;0.87;;;13.70;99.90;;;;;;5103883;28;20647;-87